sensor_id;sensor_type;location;lat;lon;timestamp;P1;durP1;ratioP1;P2;durP2;ratioP2
24421;SDS011;12600;53.326;-6.298;2023-04-30T00:00:06;27.00;;;17.00;;
24421;SDS011;12600;53.326;-6.298;2023-04-30T00:02:57;17.92;;;12.07;;
24421;SDS011;12600;53.326;-6.298;2023-04-30T00:05:49;20.15;;;12.20;;
24421;SDS011;12600;53.326;-6.298;2023-04-30T00:08:40;16.83;;;11.70;;
24421;SDS011;12600;53.326;-6.298;2023-04-30T00:11:29;17.48;;;11.10;;
24421;SDS011;12600;53.326;-6.298;2023-04-30T00:14:18;16.77;;;10.60;;
24421;SDS011;12600;53.326;-6.298;2023-04-30T00:17:08;16.30;;;10.43;;
24421;SDS011;12600;53.326;-6.298;2023-04-30T00:19:57;20.15;;;11.60;;
24421;SDS011;12600;53.326;-6.298;2023-04-30T00:22:47;16.40;;;9.95;;
24421;SDS011;12600;53.326;-6.298;2023-04-30T00:25:38;13.15;;;8.48;;
24421;SDS011;12600;53.326;-6.298;2023-04-30T00:28:27;11.98;;;7.55;;
24421;SDS011;12600;53.326;-6.298;2023-04-30T00:31:16;11.98;;;7.55;;
24421;SDS011;12600;53.326;-6.298;2023-04-30T00:34:05;10.93;;;7.70;;
24421;SDS011;12600;53.326;-6.298;2023-04-30T00:36:55;13.95;;;7.80;;
24421;SDS011;12600;53.326;-6.298;2023-04-30T00:39:44;14.45;;;7.78;;
24421;SDS011;12600;53.326;-6.298;2023-04-30T00:42:35;14.75;;;7.75;;
24421;SDS011;12600;53.326;-6.298;2023-04-30T00:45:24;11.50;;;7.38;;
24421;SDS011;12600;53.326;-6.298;2023-04-30T00:48:14;15.05;;;8.43;;
24421;SDS011;12600;53.326;-6.298;2023-04-30T00:51:04;19.30;;;10.63;;
24421;SDS011;12600;53.326;-6.298;2023-04-30T00:53:54;17.95;;;9.48;;
24421;SDS011;12600;53.326;-6.298;2023-04-30T00:56:43;18.80;;;10.18;;
24421;SDS011;12600;53.326;-6.298;2023-04-30T00:59:34;20.10;;;11.23;;
24421;SDS011;12600;53.326;-6.298;2023-04-30T01:02:24;20.65;;;10.98;;
24421;SDS011;12600;53.326;-6.298;2023-04-30T01:05:13;22.42;;;12.38;;
24421;SDS011;12600;53.326;-6.298;2023-04-30T01:08:03;23.42;;;12.23;;
24421;SDS011;12600;53.326;-6.298;2023-04-30T01:10:53;24.60;;;12.80;;
24421;SDS011;12600;53.326;-6.298;2023-04-30T01:13:54;24.00;;;12.25;;
24421;SDS011;12600;53.326;-6.298;2023-04-30T01:16:59;22.80;;;11.95;;
24421;SDS011;12600;53.326;-6.298;2023-04-30T01:19:56;28.88;;;12.48;;
24421;SDS011;12600;53.326;-6.298;2023-04-30T01:22:49;24.73;;;12.65;;
24421;SDS011;12600;53.326;-6.298;2023-04-30T01:25:43;28.20;;;12.98;;
24421;SDS011;12600;53.326;-6.298;2023-04-30T01:28:49;26.67;;;12.45;;
24421;SDS011;12600;53.326;-6.298;2023-04-30T01:31:42;28.27;;;12.77;;
24421;SDS011;12600;53.326;-6.298;2023-04-30T01:34:32;27.60;;;12.88;;
24421;SDS011;12600;53.326;-6.298;2023-04-30T01:37:23;27.67;;;12.38;;
24421;SDS011;12600;53.326;-6.298;2023-04-30T01:40:26;23.15;;;11.55;;
24421;SDS011;12600;53.326;-6.298;2023-04-30T01:43:30;23.02;;;11.63;;
24421;SDS011;12600;53.326;-6.298;2023-04-30T01:46:29;24.85;;;11.68;;
24421;SDS011;12600;53.326;-6.298;2023-04-30T01:49:20;21.90;;;11.10;;
24421;SDS011;12600;53.326;-6.298;2023-04-30T01:52:22;22.27;;;11.20;;
24421;SDS011;12600;53.326;-6.298;2023-04-30T01:55:20;25.15;;;11.60;;
24421;SDS011;12600;53.326;-6.298;2023-04-30T01:58:17;21.45;;;10.27;;
24421;SDS011;12600;53.326;-6.298;2023-04-30T02:01:23;19.65;;;10.18;;
24421;SDS011;12600;53.326;-6.298;2023-04-30T02:04:16;18.75;;;9.05;;
24421;SDS011;12600;53.326;-6.298;2023-04-30T02:07:05;18.33;;;8.50;;
24421;SDS011;12600;53.326;-6.298;2023-04-30T02:09:55;16.23;;;7.85;;
24421;SDS011;12600;53.326;-6.298;2023-04-30T02:12:44;15.63;;;7.45;;
24421;SDS011;12600;53.326;-6.298;2023-04-30T02:15:33;17.27;;;7.82;;
24421;SDS011;12600;53.326;-6.298;2023-04-30T02:18:23;15.98;;;7.05;;
24421;SDS011;12600;53.326;-6.298;2023-04-30T02:21:14;16.23;;;7.50;;
24421;SDS011;12600;53.326;-6.298;2023-04-30T02:24:04;15.80;;;7.95;;
24421;SDS011;12600;53.326;-6.298;2023-04-30T02:26:54;15.43;;;6.90;;
24421;SDS011;12600;53.326;-6.298;2023-04-30T02:29:43;17.30;;;7.55;;
24421;SDS011;12600;53.326;-6.298;2023-04-30T02:32:33;16.58;;;7.35;;
24421;SDS011;12600;53.326;-6.298;2023-04-30T02:35:22;25.73;;;7.93;;
24421;SDS011;12600;53.326;-6.298;2023-04-30T02:38:13;16.65;;;7.15;;
24421;SDS011;12600;53.326;-6.298;2023-04-30T02:41:02;18.83;;;7.70;;
24421;SDS011;12600;53.326;-6.298;2023-04-30T02:43:52;16.65;;;6.78;;
24421;SDS011;12600;53.326;-6.298;2023-04-30T02:46:41;18.67;;;7.25;;
24421;SDS011;12600;53.326;-6.298;2023-04-30T02:49:30;14.27;;;6.22;;
24421;SDS011;12600;53.326;-6.298;2023-04-30T02:52:19;14.48;;;6.20;;
24421;SDS011;12600;53.326;-6.298;2023-04-30T02:55:10;15.13;;;6.40;;
24421;SDS011;12600;53.326;-6.298;2023-04-30T02:58:00;12.75;;;5.38;;
24421;SDS011;12600;53.326;-6.298;2023-04-30T03:00:49;14.07;;;5.35;;
24421;SDS011;12600;53.326;-6.298;2023-04-30T03:03:38;18.65;;;5.32;;
24421;SDS011;12600;53.326;-6.298;2023-04-30T03:06:28;13.10;;;4.72;;
24421;SDS011;12600;53.326;-6.298;2023-04-30T03:09:17;9.88;;;4.10;;
24421;SDS011;12600;53.326;-6.298;2023-04-30T03:12:08;9.10;;;3.97;;
24421;SDS011;12600;53.326;-6.298;2023-04-30T03:14:57;9.20;;;4.35;;
24421;SDS011;12600;53.326;-6.298;2023-04-30T03:17:46;10.18;;;4.35;;
24421;SDS011;12600;53.326;-6.298;2023-04-30T03:20:36;8.80;;;3.88;;
24421;SDS011;12600;53.326;-6.298;2023-04-30T03:23:26;8.57;;;3.63;;
24421;SDS011;12600;53.326;-6.298;2023-04-30T03:26:15;9.30;;;4.20;;
24421;SDS011;12600;53.326;-6.298;2023-04-30T03:29:06;8.25;;;3.45;;
24421;SDS011;12600;53.326;-6.298;2023-04-30T03:31:55;7.25;;;3.30;;
24421;SDS011;12600;53.326;-6.298;2023-04-30T03:34:45;7.30;;;3.08;;
24421;SDS011;12600;53.326;-6.298;2023-04-30T03:37:34;6.22;;;2.88;;
24421;SDS011;12600;53.326;-6.298;2023-04-30T03:40:23;6.38;;;3.28;;
24421;SDS011;12600;53.326;-6.298;2023-04-30T03:43:13;9.43;;;3.50;;
24421;SDS011;12600;53.326;-6.298;2023-04-30T03:46:04;7.75;;;3.28;;
24421;SDS011;12600;53.326;-6.298;2023-04-30T03:48:53;6.50;;;3.03;;
24421;SDS011;12600;53.326;-6.298;2023-04-30T03:51:42;7.65;;;3.30;;
24421;SDS011;12600;53.326;-6.298;2023-04-30T03:54:32;5.55;;;2.75;;
24421;SDS011;12600;53.326;-6.298;2023-04-30T03:57:21;5.22;;;2.70;;
24421;SDS011;12600;53.326;-6.298;2023-04-30T04:00:11;7.90;;;3.25;;
24421;SDS011;12600;53.326;-6.298;2023-04-30T04:03:08;8.10;;;2.95;;
24421;SDS011;12600;53.326;-6.298;2023-04-30T04:05:59;5.85;;;2.95;;
24421;SDS011;12600;53.326;-6.298;2023-04-30T04:08:49;7.00;;;2.70;;
24421;SDS011;12600;53.326;-6.298;2023-04-30T04:11:38;4.80;;;2.45;;
24421;SDS011;12600;53.326;-6.298;2023-04-30T04:14:28;6.47;;;3.05;;
24421;SDS011;12600;53.326;-6.298;2023-04-30T04:17:17;5.20;;;2.85;;
24421;SDS011;12600;53.326;-6.298;2023-04-30T04:20:08;7.38;;;3.20;;
24421;SDS011;12600;53.326;-6.298;2023-04-30T04:23:01;5.90;;;2.85;;
24421;SDS011;12600;53.326;-6.298;2023-04-30T04:25:50;5.30;;;2.58;;
24421;SDS011;12600;53.326;-6.298;2023-04-30T04:28:40;6.28;;;3.10;;
24421;SDS011;12600;53.326;-6.298;2023-04-30T04:31:30;5.47;;;2.70;;
24421;SDS011;12600;53.326;-6.298;2023-04-30T04:34:20;5.25;;;2.60;;
24421;SDS011;12600;53.326;-6.298;2023-04-30T04:37:12;5.68;;;3.13;;
24421;SDS011;12600;53.326;-6.298;2023-04-30T04:40:01;5.50;;;3.30;;
24421;SDS011;12600;53.326;-6.298;2023-04-30T04:42:52;6.50;;;3.53;;
24421;SDS011;12600;53.326;-6.298;2023-04-30T04:45:41;7.70;;;3.55;;
24421;SDS011;12600;53.326;-6.298;2023-04-30T04:48:31;6.93;;;3.60;;
24421;SDS011;12600;53.326;-6.298;2023-04-30T04:51:20;8.52;;;3.40;;
24421;SDS011;12600;53.326;-6.298;2023-04-30T04:54:11;7.60;;;3.83;;
24421;SDS011;12600;53.326;-6.298;2023-04-30T04:57:00;7.60;;;3.78;;
24421;SDS011;12600;53.326;-6.298;2023-04-30T04:59:50;7.78;;;4.32;;
24421;SDS011;12600;53.326;-6.298;2023-04-30T05:02:40;8.57;;;4.10;;
24421;SDS011;12600;53.326;-6.298;2023-04-30T05:05:29;8.70;;;3.97;;
24421;SDS011;12600;53.326;-6.298;2023-04-30T05:08:18;8.68;;;4.57;;
24421;SDS011;12600;53.326;-6.298;2023-04-30T05:11:09;11.32;;;4.75;;
24421;SDS011;12600;53.326;-6.298;2023-04-30T05:14:01;6.97;;;3.95;;
24421;SDS011;12600;53.326;-6.298;2023-04-30T05:16:51;9.50;;;4.55;;
24421;SDS011;12600;53.326;-6.298;2023-04-30T05:19:40;6.50;;;3.30;;
24421;SDS011;12600;53.326;-6.298;2023-04-30T05:22:29;3.13;;;1.50;;
24421;SDS011;12600;53.326;-6.298;2023-04-30T05:25:19;1.77;;;1.20;;
24421;SDS011;12600;53.326;-6.298;2023-04-30T05:28:10;1.50;;;0.88;;
24421;SDS011;12600;53.326;-6.298;2023-04-30T05:30:59;1.75;;;1.10;;
24421;SDS011;12600;53.326;-6.298;2023-04-30T05:33:49;1.85;;;1.30;;
24421;SDS011;12600;53.326;-6.298;2023-04-30T05:36:38;1.77;;;1.15;;
24421;SDS011;12600;53.326;-6.298;2023-04-30T05:39:30;2.53;;;1.30;;
24421;SDS011;12600;53.326;-6.298;2023-04-30T05:42:19;2.05;;;1.33;;
24421;SDS011;12600;53.326;-6.298;2023-04-30T05:45:10;2.47;;;1.23;;
24421;SDS011;12600;53.326;-6.298;2023-04-30T05:48:03;2.00;;;1.48;;
24421;SDS011;12600;53.326;-6.298;2023-04-30T05:50:53;3.47;;;1.85;;
24421;SDS011;12600;53.326;-6.298;2023-04-30T05:53:42;5.85;;;2.50;;
24421;SDS011;12600;53.326;-6.298;2023-04-30T05:56:31;3.17;;;2.15;;
24421;SDS011;12600;53.326;-6.298;2023-04-30T05:59:21;2.70;;;1.80;;
24421;SDS011;12600;53.326;-6.298;2023-04-30T06:02:11;2.63;;;1.85;;
24421;SDS011;12600;53.326;-6.298;2023-04-30T06:05:01;3.17;;;2.30;;
24421;SDS011;12600;53.326;-6.298;2023-04-30T06:07:50;4.20;;;2.63;;
24421;SDS011;12600;53.326;-6.298;2023-04-30T06:10:39;3.10;;;1.88;;
24421;SDS011;12600;53.326;-6.298;2023-04-30T06:13:30;2.95;;;2.20;;
24421;SDS011;12600;53.326;-6.298;2023-04-30T06:16:19;3.67;;;2.45;;
24421;SDS011;12600;53.326;-6.298;2023-04-30T06:19:10;3.85;;;2.50;;
24421;SDS011;12600;53.326;-6.298;2023-04-30T06:21:59;4.28;;;2.88;;
24421;SDS011;12600;53.326;-6.298;2023-04-30T06:24:49;6.43;;;3.70;;
24421;SDS011;12600;53.326;-6.298;2023-04-30T06:27:38;6.82;;;3.90;;
24421;SDS011;12600;53.326;-6.298;2023-04-30T06:30:27;6.63;;;3.00;;
24421;SDS011;12600;53.326;-6.298;2023-04-30T06:33:18;4.38;;;2.75;;
24421;SDS011;12600;53.326;-6.298;2023-04-30T06:36:09;4.13;;;2.63;;
24421;SDS011;12600;53.326;-6.298;2023-04-30T06:38:59;3.45;;;2.30;;
24421;SDS011;12600;53.326;-6.298;2023-04-30T06:41:49;3.08;;;2.00;;
24421;SDS011;12600;53.326;-6.298;2023-04-30T06:44:40;3.75;;;1.80;;
24421;SDS011;12600;53.326;-6.298;2023-04-30T06:47:30;3.85;;;2.10;;
24421;SDS011;12600;53.326;-6.298;2023-04-30T06:50:20;3.30;;;2.10;;
24421;SDS011;12600;53.326;-6.298;2023-04-30T06:53:11;2.78;;;2.00;;
24421;SDS011;12600;53.326;-6.298;2023-04-30T06:56:00;3.55;;;2.20;;
24421;SDS011;12600;53.326;-6.298;2023-04-30T06:58:50;3.95;;;2.20;;
24421;SDS011;12600;53.326;-6.298;2023-04-30T07:01:43;4.65;;;2.20;;
24421;SDS011;12600;53.326;-6.298;2023-04-30T07:04:33;3.33;;;2.40;;
24421;SDS011;12600;53.326;-6.298;2023-04-30T07:07:22;4.85;;;2.78;;
24421;SDS011;12600;53.326;-6.298;2023-04-30T07:10:13;4.82;;;2.38;;
24421;SDS011;12600;53.326;-6.298;2023-04-30T07:13:03;4.70;;;2.28;;
24421;SDS011;12600;53.326;-6.298;2023-04-30T07:15:53;3.40;;;2.20;;
24421;SDS011;12600;53.326;-6.298;2023-04-30T07:18:42;3.97;;;2.50;;
24421;SDS011;12600;53.326;-6.298;2023-04-30T07:21:34;3.72;;;2.60;;
24421;SDS011;12600;53.326;-6.298;2023-04-30T07:24:24;4.53;;;2.47;;
24421;SDS011;12600;53.326;-6.298;2023-04-30T07:27:14;5.28;;;2.67;;
24421;SDS011;12600;53.326;-6.298;2023-04-30T07:30:04;4.03;;;2.60;;
24421;SDS011;12600;53.326;-6.298;2023-04-30T07:32:56;3.47;;;2.10;;
24421;SDS011;12600;53.326;-6.298;2023-04-30T07:35:45;5.22;;;2.65;;
24421;SDS011;12600;53.326;-6.298;2023-04-30T07:38:35;3.55;;;2.42;;
24421;SDS011;12600;53.326;-6.298;2023-04-30T07:41:24;4.15;;;2.42;;
24421;SDS011;12600;53.326;-6.298;2023-04-30T07:44:15;4.00;;;2.17;;
24421;SDS011;12600;53.326;-6.298;2023-04-30T07:47:05;3.60;;;2.50;;
24421;SDS011;12600;53.326;-6.298;2023-04-30T07:49:56;3.83;;;2.28;;
24421;SDS011;12600;53.326;-6.298;2023-04-30T07:52:47;4.68;;;2.30;;
24421;SDS011;12600;53.326;-6.298;2023-04-30T07:55:36;4.40;;;2.25;;
24421;SDS011;12600;53.326;-6.298;2023-04-30T07:58:26;3.55;;;2.17;;
24421;SDS011;12600;53.326;-6.298;2023-04-30T08:01:16;4.28;;;2.28;;
24421;SDS011;12600;53.326;-6.298;2023-04-30T08:04:06;3.88;;;2.60;;
24421;SDS011;12600;53.326;-6.298;2023-04-30T08:06:55;4.63;;;2.70;;
24421;SDS011;12600;53.326;-6.298;2023-04-30T08:09:45;3.67;;;2.83;;
24421;SDS011;12600;53.326;-6.298;2023-04-30T08:12:34;3.80;;;2.50;;
24421;SDS011;12600;53.326;-6.298;2023-04-30T08:15:24;4.95;;;2.85;;
24421;SDS011;12600;53.326;-6.298;2023-04-30T08:18:17;7.10;;;3.08;;
24421;SDS011;12600;53.326;-6.298;2023-04-30T08:21:06;3.92;;;2.58;;
24421;SDS011;12600;53.326;-6.298;2023-04-30T08:23:56;6.57;;;2.80;;
24421;SDS011;12600;53.326;-6.298;2023-04-30T08:26:46;5.00;;;2.80;;
24421;SDS011;12600;53.326;-6.298;2023-04-30T08:29:35;4.55;;;2.70;;
24421;SDS011;12600;53.326;-6.298;2023-04-30T08:32:24;5.60;;;3.00;;
24421;SDS011;12600;53.326;-6.298;2023-04-30T08:35:16;3.92;;;2.42;;
24421;SDS011;12600;53.326;-6.298;2023-04-30T08:38:07;3.85;;;2.42;;
24421;SDS011;12600;53.326;-6.298;2023-04-30T08:40:59;3.63;;;2.30;;
24421;SDS011;12600;53.326;-6.298;2023-04-30T08:43:56;2.80;;;1.90;;
24421;SDS011;12600;53.326;-6.298;2023-04-30T08:46:53;5.22;;;2.20;;
24421;SDS011;12600;53.326;-6.298;2023-04-30T08:49:44;4.55;;;1.98;;
24421;SDS011;12600;53.326;-6.298;2023-04-30T08:52:35;4.95;;;2.10;;
24421;SDS011;12600;53.326;-6.298;2023-04-30T08:55:26;3.83;;;2.60;;
24421;SDS011;12600;53.326;-6.298;2023-04-30T08:58:16;3.83;;;2.10;;
24421;SDS011;12600;53.326;-6.298;2023-04-30T09:01:05;4.15;;;1.95;;
24421;SDS011;12600;53.326;-6.298;2023-04-30T09:03:56;4.97;;;2.15;;
24421;SDS011;12600;53.326;-6.298;2023-04-30T09:06:46;4.82;;;2.22;;
24421;SDS011;12600;53.326;-6.298;2023-04-30T09:09:37;5.88;;;2.15;;
24421;SDS011;12600;53.326;-6.298;2023-04-30T09:12:27;3.92;;;2.10;;
24421;SDS011;12600;53.326;-6.298;2023-04-30T09:15:17;3.33;;;1.63;;
24421;SDS011;12600;53.326;-6.298;2023-04-30T09:18:07;6.43;;;2.10;;
24421;SDS011;12600;53.326;-6.298;2023-04-30T09:20:59;6.88;;;2.35;;
24421;SDS011;12600;53.326;-6.298;2023-04-30T09:23:55;5.72;;;1.95;;
24421;SDS011;12600;53.326;-6.298;2023-04-30T09:26:47;4.70;;;2.42;;
24421;SDS011;12600;53.326;-6.298;2023-04-30T09:29:38;3.72;;;1.90;;
24421;SDS011;12600;53.326;-6.298;2023-04-30T09:32:27;4.00;;;2.10;;
24421;SDS011;12600;53.326;-6.298;2023-04-30T09:35:27;5.82;;;1.90;;
24421;SDS011;12600;53.326;-6.298;2023-04-30T09:38:24;3.95;;;1.80;;
24421;SDS011;12600;53.326;-6.298;2023-04-30T09:41:21;4.72;;;1.98;;
24421;SDS011;12600;53.326;-6.298;2023-04-30T09:44:26;5.60;;;1.88;;
24421;SDS011;12600;53.326;-6.298;2023-04-30T09:47:17;3.58;;;1.55;;
24421;SDS011;12600;53.326;-6.298;2023-04-30T09:50:08;4.13;;;1.83;;
24421;SDS011;12600;53.326;-6.298;2023-04-30T09:53:04;3.42;;;1.83;;
24421;SDS011;12600;53.326;-6.298;2023-04-30T09:55:54;2.92;;;1.67;;
24421;SDS011;12600;53.326;-6.298;2023-04-30T09:58:49;4.18;;;1.55;;
24421;SDS011;12600;53.326;-6.298;2023-04-30T10:01:41;4.90;;;1.65;;
24421;SDS011;12600;53.326;-6.298;2023-04-30T10:04:32;5.55;;;1.65;;
24421;SDS011;12600;53.326;-6.298;2023-04-30T10:07:24;3.15;;;1.40;;
24421;SDS011;12600;53.326;-6.298;2023-04-30T10:10:23;4.63;;;1.70;;
24421;SDS011;12600;53.326;-6.298;2023-04-30T10:13:16;6.97;;;2.00;;
24421;SDS011;12600;53.326;-6.298;2023-04-30T10:16:11;5.63;;;1.92;;
24421;SDS011;12600;53.326;-6.298;2023-04-30T10:19:13;4.60;;;2.03;;
24421;SDS011;12600;53.326;-6.298;2023-04-30T10:22:06;5.55;;;2.13;;
24421;SDS011;12600;53.326;-6.298;2023-04-30T10:24:56;4.13;;;2.05;;
24421;SDS011;12600;53.326;-6.298;2023-04-30T10:27:47;4.70;;;2.03;;
24421;SDS011;12600;53.326;-6.298;2023-04-30T10:30:37;5.40;;;2.20;;
24421;SDS011;12600;53.326;-6.298;2023-04-30T10:33:28;4.60;;;1.95;;
24421;SDS011;12600;53.326;-6.298;2023-04-30T10:36:38;6.68;;;2.22;;
24421;SDS011;12600;53.326;-6.298;2023-04-30T10:39:31;5.38;;;2.03;;
24421;SDS011;12600;53.326;-6.298;2023-04-30T10:42:22;5.35;;;1.90;;
24421;SDS011;12600;53.326;-6.298;2023-04-30T10:45:11;6.20;;;2.67;;
24421;SDS011;12600;53.326;-6.298;2023-04-30T10:48:02;6.18;;;2.50;;
24421;SDS011;12600;53.326;-6.298;2023-04-30T10:50:54;5.00;;;2.08;;
24421;SDS011;12600;53.326;-6.298;2023-04-30T10:53:47;9.02;;;2.50;;
24421;SDS011;12600;53.326;-6.298;2023-04-30T10:56:38;6.57;;;2.78;;
24421;SDS011;12600;53.326;-6.298;2023-04-30T10:59:27;7.57;;;2.63;;
24421;SDS011;12600;53.326;-6.298;2023-04-30T11:02:16;6.13;;;2.38;;
24421;SDS011;12600;53.326;-6.298;2023-04-30T11:05:10;7.07;;;2.53;;
24421;SDS011;12600;53.326;-6.298;2023-04-30T11:08:01;9.88;;;3.03;;
24421;SDS011;12600;53.326;-6.298;2023-04-30T11:10:59;4.15;;;2.22;;
24421;SDS011;12600;53.326;-6.298;2023-04-30T11:13:57;6.65;;;2.30;;
24421;SDS011;12600;53.326;-6.298;2023-04-30T11:16:48;4.93;;;2.10;;
24421;SDS011;12600;53.326;-6.298;2023-04-30T11:19:41;7.13;;;2.53;;
24421;SDS011;12600;53.326;-6.298;2023-04-30T11:22:35;7.63;;;1.70;;
24421;SDS011;12600;53.326;-6.298;2023-04-30T11:25:32;4.88;;;2.00;;
24421;SDS011;12600;53.326;-6.298;2023-04-30T11:28:31;6.78;;;1.80;;
24421;SDS011;12600;53.326;-6.298;2023-04-30T11:31:22;3.53;;;1.65;;
24421;SDS011;12600;53.326;-6.298;2023-04-30T11:34:21;3.33;;;1.75;;
24421;SDS011;12600;53.326;-6.298;2023-04-30T11:37:12;5.03;;;2.00;;
24421;SDS011;12600;53.326;-6.298;2023-04-30T11:40:09;4.88;;;1.90;;
24421;SDS011;12600;53.326;-6.298;2023-04-30T11:43:01;5.70;;;2.08;;
24421;SDS011;12600;53.326;-6.298;2023-04-30T11:46:01;5.30;;;2.08;;
24421;SDS011;12600;53.326;-6.298;2023-04-30T11:48:56;3.78;;;1.98;;
24421;SDS011;12600;53.326;-6.298;2023-04-30T11:51:47;9.18;;;2.35;;
24421;SDS011;12600;53.326;-6.298;2023-04-30T11:54:37;11.00;;;2.42;;
24421;SDS011;12600;53.326;-6.298;2023-04-30T11:57:27;7.60;;;2.30;;
24421;SDS011;12600;53.326;-6.298;2023-04-30T12:00:28;6.82;;;2.42;;
24421;SDS011;12600;53.326;-6.298;2023-04-30T12:03:20;4.88;;;2.40;;
24421;SDS011;12600;53.326;-6.298;2023-04-30T12:06:10;11.93;;;3.22;;
24421;SDS011;12600;53.326;-6.298;2023-04-30T12:09:01;9.15;;;3.70;;
24421;SDS011;12600;53.326;-6.298;2023-04-30T12:14:42;4.55;;;2.25;;
24421;SDS011;12600;53.326;-6.298;2023-04-30T12:17:32;4.80;;;2.20;;
24421;SDS011;12600;53.326;-6.298;2023-04-30T12:20:24;6.40;;;2.40;;
24421;SDS011;12600;53.326;-6.298;2023-04-30T12:23:16;3.78;;;1.70;;
24421;SDS011;12600;53.326;-6.298;2023-04-30T12:26:05;4.45;;;2.20;;
24421;SDS011;12600;53.326;-6.298;2023-04-30T12:28:55;5.75;;;1.90;;
24421;SDS011;12600;53.326;-6.298;2023-04-30T12:31:45;6.72;;;2.20;;
24421;SDS011;12600;53.326;-6.298;2023-04-30T12:34:38;3.55;;;1.77;;
24421;SDS011;12600;53.326;-6.298;2023-04-30T12:37:29;6.60;;;2.30;;
24421;SDS011;12600;53.326;-6.298;2023-04-30T12:40:19;6.35;;;2.05;;
24421;SDS011;12600;53.326;-6.298;2023-04-30T12:43:14;5.63;;;2.58;;
24421;SDS011;12600;53.326;-6.298;2023-04-30T12:46:05;4.93;;;2.50;;
24421;SDS011;12600;53.326;-6.298;2023-04-30T12:48:54;7.70;;;2.50;;
24421;SDS011;12600;53.326;-6.298;2023-04-30T12:51:46;9.05;;;2.22;;
24421;SDS011;12600;53.326;-6.298;2023-04-30T12:54:37;7.55;;;2.50;;
24421;SDS011;12600;53.326;-6.298;2023-04-30T12:57:27;5.25;;;2.53;;
24421;SDS011;12600;53.326;-6.298;2023-04-30T13:00:16;6.00;;;2.17;;
24421;SDS011;12600;53.326;-6.298;2023-04-30T13:03:06;4.10;;;2.00;;
24421;SDS011;12600;53.326;-6.298;2023-04-30T13:05:55;6.50;;;1.80;;
24421;SDS011;12600;53.326;-6.298;2023-04-30T13:08:48;4.88;;;1.70;;
24421;SDS011;12600;53.326;-6.298;2023-04-30T13:11:46;5.75;;;2.20;;
24421;SDS011;12600;53.326;-6.298;2023-04-30T13:14:36;5.55;;;1.90;;
24421;SDS011;12600;53.326;-6.298;2023-04-30T13:17:26;5.57;;;1.75;;
24421;SDS011;12600;53.326;-6.298;2023-04-30T13:20:15;4.70;;;1.92;;
24421;SDS011;12600;53.326;-6.298;2023-04-30T13:23:05;7.43;;;1.70;;
24421;SDS011;12600;53.326;-6.298;2023-04-30T13:25:54;5.82;;;2.35;;
24421;SDS011;12600;53.326;-6.298;2023-04-30T13:28:45;5.15;;;2.38;;
24421;SDS011;12600;53.326;-6.298;2023-04-30T13:31:34;5.03;;;1.83;;
24421;SDS011;12600;53.326;-6.298;2023-04-30T13:34:24;6.10;;;2.22;;
24421;SDS011;12600;53.326;-6.298;2023-04-30T13:37:13;5.18;;;2.70;;
24421;SDS011;12600;53.326;-6.298;2023-04-30T13:40:03;5.30;;;1.63;;
24421;SDS011;12600;53.326;-6.298;2023-04-30T13:42:54;6.15;;;2.72;;
24421;SDS011;12600;53.326;-6.298;2023-04-30T13:45:45;7.20;;;1.90;;
24421;SDS011;12600;53.326;-6.298;2023-04-30T13:48:34;4.90;;;1.70;;
24421;SDS011;12600;53.326;-6.298;2023-04-30T13:51:24;3.72;;;1.48;;
24421;SDS011;12600;53.326;-6.298;2023-04-30T13:54:14;4.57;;;1.88;;
24421;SDS011;12600;53.326;-6.298;2023-04-30T13:57:03;5.40;;;2.00;;
24421;SDS011;12600;53.326;-6.298;2023-04-30T13:59:53;5.18;;;2.00;;
24421;SDS011;12600;53.326;-6.298;2023-04-30T14:02:45;7.95;;;2.47;;
24421;SDS011;12600;53.326;-6.298;2023-04-30T14:05:34;7.68;;;2.53;;
24421;SDS011;12600;53.326;-6.298;2023-04-30T14:08:24;8.02;;;2.47;;
24421;SDS011;12600;53.326;-6.298;2023-04-30T14:11:14;8.38;;;2.35;;
24421;SDS011;12600;53.326;-6.298;2023-04-30T14:14:03;7.93;;;2.60;;
24421;SDS011;12600;53.326;-6.298;2023-04-30T14:16:53;5.25;;;2.30;;
24421;SDS011;12600;53.326;-6.298;2023-04-30T14:19:44;6.85;;;2.30;;
24421;SDS011;12600;53.326;-6.298;2023-04-30T14:22:33;7.70;;;2.28;;
24421;SDS011;12600;53.326;-6.298;2023-04-30T14:25:24;7.53;;;2.28;;
24421;SDS011;12600;53.326;-6.298;2023-04-30T14:28:13;6.45;;;1.95;;
24421;SDS011;12600;53.326;-6.298;2023-04-30T14:31:03;7.22;;;2.00;;
24421;SDS011;12600;53.326;-6.298;2023-04-30T14:33:53;8.90;;;2.22;;
24421;SDS011;12600;53.326;-6.298;2023-04-30T14:36:44;6.20;;;2.03;;
24421;SDS011;12600;53.326;-6.298;2023-04-30T14:39:33;4.88;;;2.00;;
24421;SDS011;12600;53.326;-6.298;2023-04-30T14:42:24;8.35;;;2.30;;
24421;SDS011;12600;53.326;-6.298;2023-04-30T14:45:13;7.18;;;2.10;;
24421;SDS011;12600;53.326;-6.298;2023-04-30T14:48:03;6.45;;;2.30;;
24421;SDS011;12600;53.326;-6.298;2023-04-30T14:50:52;5.22;;;1.85;;
24421;SDS011;12600;53.326;-6.298;2023-04-30T14:53:43;7.55;;;2.10;;
24421;SDS011;12600;53.326;-6.298;2023-04-30T14:56:33;7.55;;;2.10;;
24421;SDS011;12600;53.326;-6.298;2023-04-30T14:59:23;11.23;;;2.10;;
24421;SDS011;12600;53.326;-6.298;2023-04-30T15:02:12;6.25;;;2.00;;
24421;SDS011;12600;53.326;-6.298;2023-04-30T15:05:02;8.43;;;2.35;;
24421;SDS011;12600;53.326;-6.298;2023-04-30T15:07:53;6.50;;;2.20;;
24421;SDS011;12600;53.326;-6.298;2023-04-30T15:10:44;8.52;;;2.58;;
24421;SDS011;12600;53.326;-6.298;2023-04-30T15:13:33;9.02;;;2.33;;
24421;SDS011;12600;53.326;-6.298;2023-04-30T15:16:23;6.78;;;2.33;;
24421;SDS011;12600;53.326;-6.298;2023-04-30T15:19:12;7.88;;;2.72;;
24421;SDS011;12600;53.326;-6.298;2023-04-30T15:22:02;12.63;;;2.92;;
24421;SDS011;12600;53.326;-6.298;2023-04-30T15:24:52;8.15;;;2.38;;
24421;SDS011;12600;53.326;-6.298;2023-04-30T15:27:45;9.20;;;2.45;;
24421;SDS011;12600;53.326;-6.298;2023-04-30T15:30:34;9.15;;;2.63;;
24421;SDS011;12600;53.326;-6.298;2023-04-30T15:33:24;10.68;;;2.70;;
24421;SDS011;12600;53.326;-6.298;2023-04-30T15:36:15;7.60;;;2.63;;
24421;SDS011;12600;53.326;-6.298;2023-04-30T15:39:04;8.05;;;2.53;;
24421;SDS011;12600;53.326;-6.298;2023-04-30T15:41:53;11.30;;;3.08;;
24421;SDS011;12600;53.326;-6.298;2023-04-30T15:44:44;11.95;;;3.20;;
24421;SDS011;12600;53.326;-6.298;2023-04-30T15:47:34;14.40;;;3.13;;
24421;SDS011;12600;53.326;-6.298;2023-04-30T15:50:23;10.27;;;3.20;;
24421;SDS011;12600;53.326;-6.298;2023-04-30T15:53:12;11.35;;;3.35;;
24421;SDS011;12600;53.326;-6.298;2023-04-30T15:56:02;9.98;;;2.97;;
24421;SDS011;12600;53.326;-6.298;2023-04-30T15:58:52;8.32;;;3.13;;
24421;SDS011;12600;53.326;-6.298;2023-04-30T16:01:43;10.25;;;3.05;;
24421;SDS011;12600;53.326;-6.298;2023-04-30T16:04:34;6.88;;;2.30;;
24421;SDS011;12600;53.326;-6.298;2023-04-30T16:07:23;9.27;;;3.42;;
24421;SDS011;12600;53.326;-6.298;2023-04-30T16:10:12;10.45;;;2.90;;
24421;SDS011;12600;53.326;-6.298;2023-04-30T16:13:02;7.70;;;3.28;;
24421;SDS011;12600;53.326;-6.298;2023-04-30T16:15:52;6.43;;;2.45;;
24421;SDS011;12600;53.326;-6.298;2023-04-30T16:18:42;6.35;;;2.10;;
24421;SDS011;12600;53.326;-6.298;2023-04-30T16:21:32;5.88;;;2.10;;
24421;SDS011;12600;53.326;-6.298;2023-04-30T16:24:23;6.57;;;2.28;;
24421;SDS011;12600;53.326;-6.298;2023-04-30T16:27:13;6.28;;;2.15;;
24421;SDS011;12600;53.326;-6.298;2023-04-30T16:30:02;8.52;;;2.95;;
24421;SDS011;12600;53.326;-6.298;2023-04-30T16:32:53;6.18;;;1.90;;
24421;SDS011;12600;53.326;-6.298;2023-04-30T16:35:44;7.45;;;2.03;;
24421;SDS011;12600;53.326;-6.298;2023-04-30T16:38:33;5.97;;;1.73;;
24421;SDS011;12600;53.326;-6.298;2023-04-30T16:41:23;6.15;;;1.77;;
24421;SDS011;12600;53.326;-6.298;2023-04-30T16:44:12;7.15;;;1.73;;
24421;SDS011;12600;53.326;-6.298;2023-04-30T16:47:02;9.27;;;2.00;;
24421;SDS011;12600;53.326;-6.298;2023-04-30T16:49:51;6.07;;;1.80;;
24421;SDS011;12600;53.326;-6.298;2023-04-30T16:52:43;5.15;;;1.58;;